Аэропорт: Сыктывкар. Сыктывкар

ICAO: UUYY

METAR:
2019-07-23 18:30:00
UUYY 231830Z 34001MPS CAVOK 15/15 Q1014 R36/CLRD61 NOSIG RMK QFE751/1002
METAR:
2019-07-23 17:00:00
TAF UUYY 231700Z 2318/2418 VRB01MPS 4000 BR BKN015 TEMPO 2318/2404 0300 FG FEW002 FM240400 02003MPS 9999 BKN020